Latest Coastal Weather Observations for Green Cape

IDN60701

Issued at 9:31 pm EDT Friday 20 October 2017 (issued every 10 minutes, with the page automatically refreshed every 10 minutes)

About coastal observations | Map of coastal stations | Coastal observations for NSW | Marine services | Other Formats
Station Details ID: 069137 Name: GREEN CAPE AWS Lat: -37.26 Lon: 150.05 Height: 19.4 m
Data from the previous 72 hours. | See also: Recent months at Green Cape
Date/Time
EDT
Temp
°C
Wind Pressure Rain since
9am
mm
Weather Cloud Vis
km
Sea
Height
m
Swell
Dir  Spd
kts
Gust
kts
hPa Trend Height
m
Period
s
Dir
20/09:30pm 13.2 SW 19 22 1025.8 - 0.0 - - - - - - -
20/09:00pm 13.3 SSW 22 28 1025.5 - 0.0 - - - - - - -
20/08:30pm 13.6 SSW 22 26 1025.3 - 0.0 - - - - - - -
20/08:00pm 13.6 SSW 20 24 1024.9 - 0.0 - - - - - - -
20/07:30pm 13.8 SSW 21 26 1024.6 - 0.0 - - - - - - -
20/07:00pm 14.3 SSW 22 26 1024.2 - 0.0 - - - - - - -
20/06:30pm 15.0 SW 27 35 1023.5 - 0.0 - - - - - - -
20/06:00pm 15.5 SW 26 33 1023.0 - 0.0 - - - - - - -
20/05:30pm 15.5 SSW 24 28 1022.4 - 0.0 - - - - - - -
20/05:00pm 15.9 SSW 26 30 1022.2 - 0.0 - - - - - - -
20/04:30pm 16.5 SSW 29 34 1021.8 - 0.0 - - - - - - -
20/04:00pm 16.5 SSW 28 32 1021.7 - 0.0 - - - - - - -
20/03:30pm 16.7 SSW 28 34 1021.6 - 0.0 - - - - - - -
20/03:00pm 16.9 SW 26 33 1021.6 - 0.0 - - - - - - -
20/02:30pm 16.8 SW 27 34 1021.5 - 0.0 - - - - - - -
20/02:00pm 16.8 SW 24 32 1022.0 - 0.0 - - - - - - -
20/01:30pm 16.4 SSW 27 34 1022.0 - 0.0 - - - - - - -
20/01:00pm 15.3 SW 27 33 1022.4 - 0.0 - - - - - - -
20/12:54pm 15.2 SW 23 33 1022.4 - 0.0 - - - - - - -
20/12:30pm 15.2 SW 19 26 1023.0 - 0.0 - - - - - - -
20/12:00pm 14.5 SSW 26 31 1022.7 - 0.0 - - - - - - -
20/11:30am 14.7 SSW 26 31 1022.4 - 0.0 - - - - - - -
20/11:00am 15.6 SW 22 31 1022.5 - 0.0 - - - - - - -
20/10:30am 15.2 SW 20 24 1022.7 - 0.0 - - - - - - -
20/10:00am 14.7 SW 22 27 1022.4 - 0.0 - - - - - - -
20/09:30am 14.6 SW 21 27 1022.5 - 0.0 - - - - - - -
20/09:00am 14.3 SW 20 26 1022.2 - 9.4 Recent precip. - - - - - -
20/08:30am 13.6 SW 23 28 1021.7 - 9.4 - - - - - - -
20/08:00am 14.2 SW 22 28 1021.7 - 9.2 - - - - - - -
20/07:30am 14.2 SW 22 28 1021.5 - 9.2 - - - - - - -
20/07:00am 14.1 SW 22 26 1021.1 - 9.2 - - - - - - -
20/06:30am 14.3 SW 23 27 1020.6 - 9.2 - - - - - - -
20/06:00am 14.4 SW 23 28 1020.2 - 9.2 - - - - - - -
20/05:30am 14.4 SW 20 25 1020.0 - 9.2 - - - - - - -
20/05:00am 14.5 SW 20 25 1019.7 - 9.2 - - - - - - -
20/04:30am 14.6 SW 22 29 1019.3 - 9.2 - - - - - - -
20/04:00am 14.6 SW 22 27 1019.0 - 9.2 - - - - - - -
20/03:30am 14.7 SW 23 27 1019.0 - 9.2 - - - - - - -
20/03:00am 14.7 SW 23 28 1018.9 - 9.2 - - - - - - -
20/02:35am 14.8 SW 21 32 1019.3 - 9.2 - - - - - - -
20/02:30am 14.9 SW 19 24 1019.3 - 9.2 - - - - - - -
20/02:00am 14.9 SW 24 27 1019.3 - 9.2 - - - - - - -
20/01:30am 14.8 SSW 27 33 1018.4 - 9.0 - - - - - - -
20/01:00am 16.2 S 21 27 1017.9 - 8.6 - - - - - - -
20/12:55am 16.7 S 16 23 1018.2 - 8.4 - - - - - - -
20/12:30am 17.5 WSW 13 19 1018.7 - 8.0 - - - - - - -
20/12:00am 17.2 W 8 10 1018.4 - 7.8 Recent precip. - - - - - -
 
Date/Time
EDT
Temp
°C
Wind Pressure Rain since
9am
mm
Weather Cloud Vis
km
Sea
Height
m
Swell
Dir  Spd
kts
Gust
kts
hPa Trend Height
m
Period
s
Dir
19/11:30pm 17.5 WNW 5 6 1018.3 - 7.8 - - - - - - -
19/11:00pm 16.1 N 8 11 1017.9 - 7.6 - - - - - - -
19/10:30pm 15.7 N 12 13 1017.8 - 7.6 - - - - - - -
19/10:00pm 16.2 N 6 11 1018.1 - 7.4 - - - - - - -
19/09:30pm 16.5 N 11 13 1018.6 - 7.0 - - - - - - -
19/09:00pm 15.8 NNE 7 9 1018.3 - 6.8 Recent precip. - - - - - -
19/08:30pm 16.0 NNE 3 5 1018.2 - 6.6 - - - - - - -
19/08:00pm 16.6 NW 1 3 1018.2 - 5.8 - - - - - - -
19/07:30pm 16.1 WSW 4 6 1017.8 - 5.6 - - - - - - -
19/07:00pm 17.0 CALM 0 0 1017.4 - 5.0 - - - - - - -
19/06:30pm 16.9 CALM 0 1 1017.7 - 3.8 - - - - - - -
19/06:00pm 17.4 ESE 2 5 1018.2 - 1.4 Recent precip. - - - - - -
19/05:30pm 17.3 ESE 8 10 1017.5 - 1.4 - - - - - - -
19/05:00pm 18.4 SE 12 16 1017.5 - 0.8 - - - - - - -
19/04:30pm 19.8 N 3 9 1017.6 - 0.0 - - - - - - -
19/04:10pm 19.4 NW 20 30 1017.5 - 0.0 - - - - - - -
19/04:05pm 18.1 NNW 22 30 1017.7 - 0.0 - - - - - - -
19/04:00pm 17.7 N 22 28 1015.7 - 0.0 - - - - - - -
19/03:30pm 17.9 N 22 26 1015.2 - 0.0 - - - - - - -
19/03:00pm 17.6 N 21 24 1015.5 - 0.0 - - - - - - -
19/02:30pm 17.7 N 23 26 1015.8 - 0.0 - - - - - - -
19/02:00pm 17.6 N 22 25 1016.4 - 0.0 - - - - - - -
19/01:30pm 17.8 N 20 23 1016.6 - 0.0 - - - - - - -
19/01:00pm 17.9 N 21 23 1017.0 - 0.0 - - - - - - -
19/12:30pm 17.8 N 20 23 1017.4 - 0.0 - - - - - - -
19/12:00pm 18.3 N 21 24 1017.9 - 0.0 - - - - - - -
19/11:30am 18.9 N 23 28 1018.2 - 0.0 - - - - - - -
19/11:00am 18.6 N 23 27 1018.5 - 0.0 - - - - - - -
19/10:30am 18.4 N 23 26 1018.7 - 0.0 - - - - - - -
19/10:00am 17.1 N 22 24 1019.2 - 0.0 - - - - - - -
19/09:30am 17.0 N 26 30 1019.2 - 0.0 - - - - - - -
19/09:00am 16.9 N 22 25 1019.5 - 0.0 - - - - - - -
19/08:30am 16.8 N 24 27 1019.5 - 0.0 - - - - - - -
19/08:00am 16.6 N 23 26 1019.8 - 0.0 - - - - - - -
19/07:30am 16.0 N 22 24 1019.9 - 0.0 - - - - - - -
19/07:00am 15.8 N 22 25 1019.9 - 0.0 - - - - - - -
19/06:30am 15.9 N 22 27 1019.9 - 0.0 - - - - - - -
19/06:00am 15.9 N 23 26 1019.7 - 0.0 - - - - - - -
19/05:30am 16.1 NNE 22 25 1019.8 - 0.0 - - - - - - -
19/05:00am 16.0 N 22 25 1019.8 - 0.0 - - - - - - -
19/04:30am 15.9 N 21 23 1020.0 - 0.0 - - - - - - -
19/04:00am 16.1 N 26 28 1019.7 - 0.0 - - - - - - -
19/03:30am 16.1 N 26 29 1019.9 - 0.0 - - - - - - -
19/03:00am 16.2 N 24 29 1020.0 - 0.0 - - - - - - -
19/02:30am 16.2 N 22 24 1020.8 - 0.0 - - - - - - -
19/02:00am 16.3 N 23 27 1021.0 - 0.0 - - - - - - -
19/01:30am 16.4 N 25 28 1021.2 - 0.0 - - - - - - -
19/01:00am 16.4 N 25 27 1021.6 - 0.0 - - - - - - -
19/12:30am 16.6 N 25 28 1022.0 - 0.0 - - - - - - -
19/12:00am 16.8 N 27 31 1022.1 - 0.0 - - - - - - -
 
Date/Time
EDT
Temp
°C
Wind Pressure Rain since
9am
mm
Weather Cloud Vis
km
Sea
Height
m
Swell
Dir  Spd
kts
Gust
kts
hPa Trend Height
m
Period
s
Dir
18/11:30pm 17.0 NNE 26 30 1022.3 - 0.0 - - - - - - -
18/11:00pm 16.9 NNE 24 27 1022.7 - 0.0 - - - - - - -
18/10:30pm 17.0 NNE 25 29 1022.7 - 0.0 - - - - - - -
18/10:00pm 17.0 NNE 22 26 1023.0 - 0.0 - - - - - - -
18/09:30pm 17.1 NNE 24 29 1023.0 - 0.0 - - - - - - -
18/09:00pm 17.2 NNE 24 27 1023.3 - 0.0 - - - - - - -
18/08:30pm 17.3 NNE 25 29 1022.8 - 0.0 - - - - - - -
18/08:00pm 17.4 NNE 22 25 1022.8 - 0.0 - - - - - - -
18/07:30pm 17.4 NNE 19 23 1022.6 - 0.0 - - - - - - -
18/07:00pm 17.6 NNE 19 23 1022.7 - 0.0 - - - - - - -
18/06:30pm 17.9 N 17 20 1022.8 - 0.0 - - - - - - -
18/06:00pm 18.2 N 19 23 1022.8 - 0.0 - - - - - - -
18/05:30pm 18.9 N 16 18 1023.1 - 0.0 - - - - - - -
18/05:00pm 19.1 N 14 17 1023.2 - 0.0 - - - - - - -
18/04:30pm 18.7 NNE 15 17 1023.1 - 0.0 - - - - - - -
18/04:00pm 19.7 NNE 18 20 1023.3 - 0.0 - - - - - - -
18/03:30pm 20.0 NNE 19 22 1023.2 - 0.0 - - - - - - -
18/03:00pm 20.5 NNE 20 23 1023.4 - 0.0 - - - - - - -
18/02:30pm 20.1 NNE 19 22 1024.0 - 0.0 - - - - - - -
18/02:00pm 20.1 NNE 22 25 1024.2 - 0.0 - - - - - - -
18/01:30pm 19.9 NNE 22 25 1024.6 - 0.0 - - - - - - -
18/01:00pm 19.9 NNE 22 25 1024.8 - 0.0 - - - - - - -
18/12:30pm 19.6 NNE 20 24 1025.1 - 0.0 - - - - - - -
18/12:00pm 19.5 NNE 19 22 1025.5 - 0.0 - - - - - - -
18/11:30am 19.5 NNE 18 20 1025.7 - 0.0 - - - - - - -
18/11:00am 18.9 NNE 20 23 1025.8 - 0.0 - - - - - - -
18/10:30am 18.7 N 17 20 1025.9 - 0.0 - - - - - - -
18/10:00am 17.9 N 17 19 1025.9 - 0.0 - - - - - - -
18/09:30am 17.5 N 15 18 1026.1 - 0.0 - - - - - - -
18/09:00am 17.0 N 18 20 1025.7 - 0.0 - - - - - - -
18/08:30am 16.6 N 17 20 1025.5 - 0.0 - - - - - - -
18/08:00am 16.3 N 17 20 1025.3 - 0.0 - - - - - - -
18/07:30am 16.1 N 20 23 1025.1 - 0.0 - - - - - - -
18/07:00am 15.7 N 17 19 1025.0 - 0.0 - - - - - - -
18/06:30am 15.4 N 18 21 1024.8 - 0.0 - - - - - - -
18/06:00am 15.3 N 15 18 1024.6 - 0.0 - - - - - - -
18/05:30am 15.3 N 15 17 1024.7 - 0.0 - - - - - - -
18/05:00am 15.4 N 14 16 1024.8 - 0.0 - - - - - - -
18/04:30am 15.5 N 15 17 1024.7 - 0.0 - - - - - - -
18/04:00am 15.6 N 14 17 1024.8 - 0.0 - - - - - - -
18/03:30am 16.0 N 18 20 1024.6 - 0.0 - - - - - - -
18/03:00am 16.3 N 20 24 1024.5 - 0.0 - - - - - - -
18/02:30am 16.4 N 22 25 1024.4 - 0.0 - - - - - - -
18/02:00am 16.5 NNE 22 26 1024.6 - 0.0 - - - - - - -
18/01:30am 16.6 NNE 24 27 1024.7 - 0.0 - - - - - - -
18/01:00am 16.7 NNE 24 28 1025.0 - 0.0 - - - - - - -
18/12:30am 16.6 NNE 23 27 1025.3 - 0.0 - - - - - - -
18/12:00am 16.7 NNE 24 28 1025.2 - 0.0 - - - - - - -
 
Date/Time
EDT
Temp
°C
Wind Pressure Rain since
9am
mm
Weather Cloud Vis
km
Sea
Height
m
Swell
Dir  Spd
kts
Gust
kts
hPa Trend Height
m
Period
s
Dir
17/11:30pm 16.6 NNE 22 26 1025.4 - 0.0 - - - - - - -
17/11:00pm 16.6 NNE 19 22 1025.7 - 0.0 - - - - - - -
17/10:30pm 16.6 N 16 19 1026.0 - 0.0 - - - - - - -
17/10:00pm 16.7 N 17 20 1026.1 - 0.0 - - - - - - -

Other Formats:

Comma delimited format used in spreadsheet applications
http://www.bom.gov.au/fwo/IDN60701/IDN60701.94934.axf

JavaScript Object Notation format (JSON) in row-major order
http://www.bom.gov.au/fwo/IDN60701/IDN60701.94934.json